sensor_id;sensor_type;location;lat;lon;timestamp;P1;durP1;ratioP1;P2;durP2;ratioP2
22660;SDS011;11497;52.222;21.246;2023-12-20T00:01:18;31.48;;;18.67;;
22660;SDS011;11497;52.222;21.246;2023-12-20T00:03:46;31.13;;;18.80;;
22660;SDS011;11497;52.222;21.246;2023-12-20T00:06:14;31.80;;;20.48;;
22660;SDS011;11497;52.222;21.246;2023-12-20T00:08:41;32.75;;;19.40;;
22660;SDS011;11497;52.222;21.246;2023-12-20T00:11:11;30.05;;;19.30;;
22660;SDS011;11497;52.222;21.246;2023-12-20T00:13:38;29.98;;;19.23;;
22660;SDS011;11497;52.222;21.246;2023-12-20T00:16:09;27.33;;;17.73;;
22660;SDS011;11497;52.222;21.246;2023-12-20T00:18:37;28.13;;;18.23;;
22660;SDS011;11497;52.222;21.246;2023-12-20T00:21:05;30.70;;;17.70;;
22660;SDS011;11497;52.222;21.246;2023-12-20T00:23:32;28.83;;;18.13;;
22660;SDS011;11497;52.222;21.246;2023-12-20T00:26:00;28.23;;;17.85;;
22660;SDS011;11497;52.222;21.246;2023-12-20T00:28:28;27.52;;;17.92;;
22660;SDS011;11497;52.222;21.246;2023-12-20T00:30:56;27.88;;;17.88;;
22660;SDS011;11497;52.222;21.246;2023-12-20T00:33:24;29.23;;;18.83;;
22660;SDS011;11497;52.222;21.246;2023-12-20T00:35:52;28.63;;;16.65;;
22660;SDS011;11497;52.222;21.246;2023-12-20T00:38:20;26.77;;;17.10;;
22660;SDS011;11497;52.222;21.246;2023-12-20T00:40:48;27.52;;;17.17;;
22660;SDS011;11497;52.222;21.246;2023-12-20T00:43:16;27.63;;;16.35;;
22660;SDS011;11497;52.222;21.246;2023-12-20T00:45:44;27.75;;;17.75;;
22660;SDS011;11497;52.222;21.246;2023-12-20T00:48:12;23.30;;;15.13;;
22660;SDS011;11497;52.222;21.246;2023-12-20T00:50:40;23.50;;;15.73;;
22660;SDS011;11497;52.222;21.246;2023-12-20T00:53:07;25.15;;;16.00;;
22660;SDS011;11497;52.222;21.246;2023-12-20T00:55:36;26.02;;;15.27;;
22660;SDS011;11497;52.222;21.246;2023-12-20T00:58:04;23.17;;;15.35;;
22660;SDS011;11497;52.222;21.246;2023-12-20T01:00:32;23.95;;;15.57;;
22660;SDS011;11497;52.222;21.246;2023-12-20T01:03:00;27.10;;;15.82;;
22660;SDS011;11497;52.222;21.246;2023-12-20T01:05:28;22.52;;;15.27;;
22660;SDS011;11497;52.222;21.246;2023-12-20T01:07:56;22.85;;;14.80;;
22660;SDS011;11497;52.222;21.246;2023-12-20T01:10:23;22.85;;;15.18;;
22660;SDS011;11497;52.222;21.246;2023-12-20T01:12:54;22.55;;;14.60;;
22660;SDS011;11497;52.222;21.246;2023-12-20T01:15:22;22.52;;;14.23;;
22660;SDS011;11497;52.222;21.246;2023-12-20T01:17:50;23.33;;;14.60;;
22660;SDS011;11497;52.222;21.246;2023-12-20T01:20:18;21.98;;;15.80;;
22660;SDS011;11497;52.222;21.246;2023-12-20T01:22:47;21.83;;;14.85;;
22660;SDS011;11497;52.222;21.246;2023-12-20T01:25:14;23.27;;;15.55;;
22660;SDS011;11497;52.222;21.246;2023-12-20T01:27:42;22.00;;;14.25;;
22660;SDS011;11497;52.222;21.246;2023-12-20T01:30:11;21.20;;;14.25;;
22660;SDS011;11497;52.222;21.246;2023-12-20T01:32:39;20.00;;;13.77;;
22660;SDS011;11497;52.222;21.246;2023-12-20T01:35:07;22.33;;;14.25;;
22660;SDS011;11497;52.222;21.246;2023-12-20T01:37:35;20.88;;;13.00;;
22660;SDS011;11497;52.222;21.246;2023-12-20T01:40:03;20.90;;;13.73;;
22660;SDS011;11497;52.222;21.246;2023-12-20T01:42:31;20.58;;;13.00;;
22660;SDS011;11497;52.222;21.246;2023-12-20T01:44:59;20.90;;;13.63;;
22660;SDS011;11497;52.222;21.246;2023-12-20T01:47:27;18.05;;;12.52;;
22660;SDS011;11497;52.222;21.246;2023-12-20T01:49:55;17.80;;;11.60;;
22660;SDS011;11497;52.222;21.246;2023-12-20T01:52:24;17.27;;;12.35;;
22660;SDS011;11497;52.222;21.246;2023-12-20T01:54:53;18.90;;;13.07;;
22660;SDS011;11497;52.222;21.246;2023-12-20T01:57:27;18.75;;;12.48;;
22660;SDS011;11497;52.222;21.246;2023-12-20T01:59:55;16.65;;;11.52;;
22660;SDS011;11497;52.222;21.246;2023-12-20T02:02:24;16.60;;;11.38;;
22660;SDS011;11497;52.222;21.246;2023-12-20T02:04:54;17.17;;;12.10;;
22660;SDS011;11497;52.222;21.246;2023-12-20T02:07:22;18.83;;;12.13;;
22660;SDS011;11497;52.222;21.246;2023-12-20T02:09:50;17.60;;;11.65;;
22660;SDS011;11497;52.222;21.246;2023-12-20T02:12:18;17.58;;;11.85;;
22660;SDS011;11497;52.222;21.246;2023-12-20T02:14:46;16.25;;;12.13;;
22660;SDS011;11497;52.222;21.246;2023-12-20T02:17:15;18.10;;;12.43;;
22660;SDS011;11497;52.222;21.246;2023-12-20T02:19:43;17.55;;;11.93;;
22660;SDS011;11497;52.222;21.246;2023-12-20T02:22:11;17.25;;;12.40;;
22660;SDS011;11497;52.222;21.246;2023-12-20T02:24:39;19.17;;;12.32;;
22660;SDS011;11497;52.222;21.246;2023-12-20T02:27:07;20.92;;;12.35;;
22660;SDS011;11497;52.222;21.246;2023-12-20T02:29:35;20.50;;;12.88;;
22660;SDS011;11497;52.222;21.246;2023-12-20T02:32:03;17.15;;;11.68;;
22660;SDS011;11497;52.222;21.246;2023-12-20T02:34:31;17.70;;;10.82;;
22660;SDS011;11497;52.222;21.246;2023-12-20T02:36:59;18.98;;;11.73;;
22660;SDS011;11497;52.222;21.246;2023-12-20T02:39:27;15.30;;;11.40;;
22660;SDS011;11497;52.222;21.246;2023-12-20T02:41:55;18.20;;;12.02;;
22660;SDS011;11497;52.222;21.246;2023-12-20T02:44:23;17.23;;;11.27;;
22660;SDS011;11497;52.222;21.246;2023-12-20T02:46:51;15.23;;;11.00;;
22660;SDS011;11497;52.222;21.246;2023-12-20T02:49:19;16.13;;;11.05;;
22660;SDS011;11497;52.222;21.246;2023-12-20T02:51:47;17.05;;;10.55;;
22660;SDS011;11497;52.222;21.246;2023-12-20T02:54:15;15.93;;;10.15;;
22660;SDS011;11497;52.222;21.246;2023-12-20T02:56:43;14.27;;;10.50;;
22660;SDS011;11497;52.222;21.246;2023-12-20T02:59:11;14.13;;;10.10;;
22660;SDS011;11497;52.222;21.246;2023-12-20T03:01:45;13.82;;;9.95;;
22660;SDS011;11497;52.222;21.246;2023-12-20T03:04:13;15.15;;;10.07;;
22660;SDS011;11497;52.222;21.246;2023-12-20T03:06:41;16.27;;;10.07;;
22660;SDS011;11497;52.222;21.246;2023-12-20T03:09:09;12.73;;;9.18;;
22660;SDS011;11497;52.222;21.246;2023-12-20T03:11:37;12.68;;;8.85;;
22660;SDS011;11497;52.222;21.246;2023-12-20T03:14:05;13.30;;;9.00;;
22660;SDS011;11497;52.222;21.246;2023-12-20T03:16:33;15.90;;;10.63;;
22660;SDS011;11497;52.222;21.246;2023-12-20T03:19:03;14.60;;;9.25;;
22660;SDS011;11497;52.222;21.246;2023-12-20T03:21:30;10.80;;;7.85;;
22660;SDS011;11497;52.222;21.246;2023-12-20T03:23:58;11.13;;;7.88;;
22660;SDS011;11497;52.222;21.246;2023-12-20T03:26:26;11.93;;;7.60;;
22660;SDS011;11497;52.222;21.246;2023-12-20T03:28:54;9.98;;;7.03;;
22660;SDS011;11497;52.222;21.246;2023-12-20T03:31:22;11.43;;;6.70;;
22660;SDS011;11497;52.222;21.246;2023-12-20T03:33:50;10.88;;;7.25;;
22660;SDS011;11497;52.222;21.246;2023-12-20T03:36:19;9.88;;;6.85;;
22660;SDS011;11497;52.222;21.246;2023-12-20T03:38:47;9.85;;;7.28;;
22660;SDS011;11497;52.222;21.246;2023-12-20T03:41:15;10.32;;;6.50;;
22660;SDS011;11497;52.222;21.246;2023-12-20T03:43:43;11.93;;;7.10;;
22660;SDS011;11497;52.222;21.246;2023-12-20T03:46:10;8.85;;;6.50;;
22660;SDS011;11497;52.222;21.246;2023-12-20T03:48:38;9.55;;;6.47;;
22660;SDS011;11497;52.222;21.246;2023-12-20T03:51:06;7.93;;;5.95;;
22660;SDS011;11497;52.222;21.246;2023-12-20T03:53:34;8.68;;;6.60;;
22660;SDS011;11497;52.222;21.246;2023-12-20T03:56:02;8.80;;;6.10;;
22660;SDS011;11497;52.222;21.246;2023-12-20T03:58:30;8.95;;;5.88;;
22660;SDS011;11497;52.222;21.246;2023-12-20T04:00:58;10.05;;;6.15;;
22660;SDS011;11497;52.222;21.246;2023-12-20T04:03:26;8.50;;;6.28;;
22660;SDS011;11497;52.222;21.246;2023-12-20T04:05:54;9.13;;;5.90;;
22660;SDS011;11497;52.222;21.246;2023-12-20T04:08:22;9.63;;;6.30;;
22660;SDS011;11497;52.222;21.246;2023-12-20T04:10:50;8.95;;;6.63;;
22660;SDS011;11497;52.222;21.246;2023-12-20T04:13:18;10.90;;;6.60;;
22660;SDS011;11497;52.222;21.246;2023-12-20T04:15:46;7.00;;;5.53;;
22660;SDS011;11497;52.222;21.246;2023-12-20T04:18:14;9.77;;;5.60;;
22660;SDS011;11497;52.222;21.246;2023-12-20T04:20:42;8.98;;;6.45;;
22660;SDS011;11497;52.222;21.246;2023-12-20T04:23:10;7.90;;;5.38;;
22660;SDS011;11497;52.222;21.246;2023-12-20T04:25:38;6.50;;;5.30;;
22660;SDS011;11497;52.222;21.246;2023-12-20T04:28:06;6.60;;;5.28;;
22660;SDS011;11497;52.222;21.246;2023-12-20T04:30:33;6.80;;;5.30;;
22660;SDS011;11497;52.222;21.246;2023-12-20T04:33:02;8.02;;;5.97;;
22660;SDS011;11497;52.222;21.246;2023-12-20T04:35:30;7.88;;;5.50;;
22660;SDS011;11497;52.222;21.246;2023-12-20T04:37:58;7.70;;;5.82;;
22660;SDS011;11497;52.222;21.246;2023-12-20T04:40:26;8.05;;;5.85;;
22660;SDS011;11497;52.222;21.246;2023-12-20T04:42:55;7.13;;;5.82;;
22660;SDS011;11497;52.222;21.246;2023-12-20T04:45:22;9.45;;;6.68;;
22660;SDS011;11497;52.222;21.246;2023-12-20T04:47:51;9.13;;;6.28;;
22660;SDS011;11497;52.222;21.246;2023-12-20T04:50:20;9.15;;;6.55;;
22660;SDS011;11497;52.222;21.246;2023-12-20T04:52:49;11.18;;;6.82;;
22660;SDS011;11497;52.222;21.246;2023-12-20T04:55:17;10.98;;;7.22;;
22660;SDS011;11497;52.222;21.246;2023-12-20T04:57:46;9.25;;;6.93;;
22660;SDS011;11497;52.222;21.246;2023-12-20T05:00:14;9.43;;;7.18;;
22660;SDS011;11497;52.222;21.246;2023-12-20T05:02:43;8.75;;;6.80;;
22660;SDS011;11497;52.222;21.246;2023-12-20T05:05:11;12.70;;;7.75;;
22660;SDS011;11497;52.222;21.246;2023-12-20T05:07:39;12.75;;;8.65;;
22660;SDS011;11497;52.222;21.246;2023-12-20T05:10:07;15.07;;;9.00;;
22660;SDS011;11497;52.222;21.246;2023-12-20T05:12:35;16.40;;;9.70;;
22660;SDS011;11497;52.222;21.246;2023-12-20T05:15:04;13.75;;;8.80;;
22660;SDS011;11497;52.222;21.246;2023-12-20T05:17:33;15.98;;;10.52;;
22660;SDS011;11497;52.222;21.246;2023-12-20T05:20:01;14.40;;;10.27;;
22660;SDS011;11497;52.222;21.246;2023-12-20T05:22:29;14.52;;;9.73;;
22660;SDS011;11497;52.222;21.246;2023-12-20T05:24:57;15.52;;;10.38;;
22660;SDS011;11497;52.222;21.246;2023-12-20T05:27:25;14.00;;;9.85;;
22660;SDS011;11497;52.222;21.246;2023-12-20T05:29:53;14.07;;;10.32;;
22660;SDS011;11497;52.222;21.246;2023-12-20T05:32:24;14.40;;;10.23;;
22660;SDS011;11497;52.222;21.246;2023-12-20T05:34:52;12.95;;;9.88;;
22660;SDS011;11497;52.222;21.246;2023-12-20T05:37:20;15.55;;;10.02;;
22660;SDS011;11497;52.222;21.246;2023-12-20T05:39:48;15.90;;;10.50;;
22660;SDS011;11497;52.222;21.246;2023-12-20T05:42:16;14.57;;;10.00;;
22660;SDS011;11497;52.222;21.246;2023-12-20T05:44:44;14.95;;;10.48;;
22660;SDS011;11497;52.222;21.246;2023-12-20T05:47:12;15.35;;;10.52;;
22660;SDS011;11497;52.222;21.246;2023-12-20T05:49:39;15.60;;;10.05;;
22660;SDS011;11497;52.222;21.246;2023-12-20T05:52:07;15.63;;;10.77;;
22660;SDS011;11497;52.222;21.246;2023-12-20T05:54:35;15.35;;;11.30;;
22660;SDS011;11497;52.222;21.246;2023-12-20T05:57:04;15.98;;;10.32;;
22660;SDS011;11497;52.222;21.246;2023-12-20T05:59:31;16.55;;;11.15;;
22660;SDS011;11497;52.222;21.246;2023-12-20T06:01:59;16.67;;;11.85;;
22660;SDS011;11497;52.222;21.246;2023-12-20T06:04:27;19.70;;;13.02;;
22660;SDS011;11497;52.222;21.246;2023-12-20T06:06:56;18.17;;;12.57;;
22660;SDS011;11497;52.222;21.246;2023-12-20T06:09:24;17.85;;;12.20;;
22660;SDS011;11497;52.222;21.246;2023-12-20T06:11:56;18.92;;;12.63;;
22660;SDS011;11497;52.222;21.246;2023-12-20T06:14:24;19.58;;;12.45;;
22660;SDS011;11497;52.222;21.246;2023-12-20T06:16:51;18.88;;;12.32;;
22660;SDS011;11497;52.222;21.246;2023-12-20T06:19:19;17.92;;;11.95;;
22660;SDS011;11497;52.222;21.246;2023-12-20T06:21:48;20.02;;;11.98;;
22660;SDS011;11497;52.222;21.246;2023-12-20T06:24:15;18.20;;;12.05;;
22660;SDS011;11497;52.222;21.246;2023-12-20T06:26:43;18.58;;;12.10;;
22660;SDS011;11497;52.222;21.246;2023-12-20T06:29:11;18.63;;;11.88;;
22660;SDS011;11497;52.222;21.246;2023-12-20T06:31:39;16.60;;;12.07;;
22660;SDS011;11497;52.222;21.246;2023-12-20T06:34:07;19.48;;;11.93;;
22660;SDS011;11497;52.222;21.246;2023-12-20T06:36:35;19.17;;;12.88;;
22660;SDS011;11497;52.222;21.246;2023-12-20T06:39:03;18.35;;;12.73;;
22660;SDS011;11497;52.222;21.246;2023-12-20T06:41:31;19.30;;;13.10;;
22660;SDS011;11497;52.222;21.246;2023-12-20T06:43:59;19.67;;;12.00;;
22660;SDS011;11497;52.222;21.246;2023-12-20T06:46:27;20.20;;;12.90;;
22660;SDS011;11497;52.222;21.246;2023-12-20T06:48:54;19.17;;;12.35;;
22660;SDS011;11497;52.222;21.246;2023-12-20T06:51:23;20.42;;;13.13;;
22660;SDS011;11497;52.222;21.246;2023-12-20T06:53:52;21.48;;;12.45;;
22660;SDS011;11497;52.222;21.246;2023-12-20T06:56:20;19.70;;;12.02;;
22660;SDS011;11497;52.222;21.246;2023-12-20T06:58:48;22.30;;;12.90;;
22660;SDS011;11497;52.222;21.246;2023-12-20T07:01:16;19.40;;;11.75;;
22660;SDS011;11497;52.222;21.246;2023-12-20T07:03:44;19.73;;;12.25;;
22660;SDS011;11497;52.222;21.246;2023-12-20T07:06:12;18.40;;;12.18;;
22660;SDS011;11497;52.222;21.246;2023-12-20T07:08:43;17.90;;;11.52;;
22660;SDS011;11497;52.222;21.246;2023-12-20T07:11:11;17.73;;;12.00;;
22660;SDS011;11497;52.222;21.246;2023-12-20T07:13:38;20.45;;;12.55;;
22660;SDS011;11497;52.222;21.246;2023-12-20T07:16:06;20.20;;;11.98;;
22660;SDS011;11497;52.222;21.246;2023-12-20T07:18:34;21.10;;;12.43;;
22660;SDS011;11497;52.222;21.246;2023-12-20T07:21:02;18.60;;;11.63;;
22660;SDS011;11497;52.222;21.246;2023-12-20T07:23:31;19.60;;;12.10;;
22660;SDS011;11497;52.222;21.246;2023-12-20T07:25:59;20.70;;;12.05;;
22660;SDS011;11497;52.222;21.246;2023-12-20T07:28:26;20.10;;;12.18;;
22660;SDS011;11497;52.222;21.246;2023-12-20T07:30:54;18.58;;;10.90;;
22660;SDS011;11497;52.222;21.246;2023-12-20T07:33:22;20.40;;;11.13;;
22660;SDS011;11497;52.222;21.246;2023-12-20T07:35:50;21.38;;;11.68;;
22660;SDS011;11497;52.222;21.246;2023-12-20T07:38:19;17.75;;;11.57;;
22660;SDS011;11497;52.222;21.246;2023-12-20T07:40:46;20.15;;;12.23;;
22660;SDS011;11497;52.222;21.246;2023-12-20T07:43:14;20.10;;;12.48;;
22660;SDS011;11497;52.222;21.246;2023-12-20T07:45:42;21.70;;;12.68;;
22660;SDS011;11497;52.222;21.246;2023-12-20T07:48:10;18.17;;;11.18;;
22660;SDS011;11497;52.222;21.246;2023-12-20T07:50:38;19.45;;;11.82;;
22660;SDS011;11497;52.222;21.246;2023-12-20T07:53:06;17.67;;;11.73;;
22660;SDS011;11497;52.222;21.246;2023-12-20T07:55:34;18.98;;;11.75;;
22660;SDS011;11497;52.222;21.246;2023-12-20T07:58:02;20.27;;;12.65;;
22660;SDS011;11497;52.222;21.246;2023-12-20T08:00:32;17.63;;;11.48;;
22660;SDS011;11497;52.222;21.246;2023-12-20T08:02:59;18.35;;;11.82;;
22660;SDS011;11497;52.222;21.246;2023-12-20T08:05:30;18.17;;;11.93;;
22660;SDS011;11497;52.222;21.246;2023-12-20T08:07:58;17.15;;;12.15;;
22660;SDS011;11497;52.222;21.246;2023-12-20T08:10:26;19.08;;;11.73;;
22660;SDS011;11497;52.222;21.246;2023-12-20T08:12:56;18.55;;;12.43;;
22660;SDS011;11497;52.222;21.246;2023-12-20T08:15:24;18.33;;;11.90;;
22660;SDS011;11497;52.222;21.246;2023-12-20T08:17:52;20.40;;;13.20;;
22660;SDS011;11497;52.222;21.246;2023-12-20T08:20:20;20.42;;;12.23;;
22660;SDS011;11497;52.222;21.246;2023-12-20T08:22:58;19.10;;;12.68;;
22660;SDS011;11497;52.222;21.246;2023-12-20T08:25:26;17.98;;;11.60;;
22660;SDS011;11497;52.222;21.246;2023-12-20T08:27:54;16.00;;;11.48;;
22660;SDS011;11497;52.222;21.246;2023-12-20T08:30:22;16.63;;;11.90;;
22660;SDS011;11497;52.222;21.246;2023-12-20T08:32:50;16.77;;;11.80;;
22660;SDS011;11497;52.222;21.246;2023-12-20T08:35:18;16.52;;;11.63;;
22660;SDS011;11497;52.222;21.246;2023-12-20T08:37:46;15.82;;;10.82;;
22660;SDS011;11497;52.222;21.246;2023-12-20T08:40:14;14.75;;;10.13;;
22660;SDS011;11497;52.222;21.246;2023-12-20T08:42:42;16.25;;;10.52;;
22660;SDS011;11497;52.222;21.246;2023-12-20T08:45:10;16.08;;;9.75;;
22660;SDS011;11497;52.222;21.246;2023-12-20T08:47:38;17.55;;;10.27;;
22660;SDS011;11497;52.222;21.246;2023-12-20T08:50:08;14.32;;;9.65;;
22660;SDS011;11497;52.222;21.246;2023-12-20T08:52:36;14.93;;;10.20;;
22660;SDS011;11497;52.222;21.246;2023-12-20T08:55:04;15.00;;;9.18;;
22660;SDS011;11497;52.222;21.246;2023-12-20T08:57:32;12.43;;;8.38;;
22660;SDS011;11497;52.222;21.246;2023-12-20T09:00:00;14.88;;;9.68;;
22660;SDS011;11497;52.222;21.246;2023-12-20T09:02:28;12.77;;;8.95;;
22660;SDS011;11497;52.222;21.246;2023-12-20T09:04:56;13.95;;;8.45;;
22660;SDS011;11497;52.222;21.246;2023-12-20T09:07:24;11.10;;;8.85;;
22660;SDS011;11497;52.222;21.246;2023-12-20T09:09:53;13.40;;;8.50;;
22660;SDS011;11497;52.222;21.246;2023-12-20T09:12:21;16.15;;;8.85;;
22660;SDS011;11497;52.222;21.246;2023-12-20T09:14:49;11.95;;;7.95;;
22660;SDS011;11497;52.222;21.246;2023-12-20T09:17:18;13.75;;;8.40;;
22660;SDS011;11497;52.222;21.246;2023-12-20T09:19:47;14.77;;;8.80;;
22660;SDS011;11497;52.222;21.246;2023-12-20T09:22:15;11.32;;;8.23;;
22660;SDS011;11497;52.222;21.246;2023-12-20T09:24:44;11.63;;;7.85;;
22660;SDS011;11497;52.222;21.246;2023-12-20T09:27:12;11.48;;;7.68;;
22660;SDS011;11497;52.222;21.246;2023-12-20T09:29:40;11.80;;;7.43;;
22660;SDS011;11497;52.222;21.246;2023-12-20T09:32:07;10.77;;;7.57;;
22660;SDS011;11497;52.222;21.246;2023-12-20T09:34:35;12.00;;;8.02;;
22660;SDS011;11497;52.222;21.246;2023-12-20T09:37:04;9.40;;;7.05;;
22660;SDS011;11497;52.222;21.246;2023-12-20T09:39:32;10.77;;;7.28;;
22660;SDS011;11497;52.222;21.246;2023-12-20T09:42:01;9.15;;;6.63;;
22660;SDS011;11497;52.222;21.246;2023-12-20T09:44:30;13.45;;;8.07;;
22660;SDS011;11497;52.222;21.246;2023-12-20T09:47:02;10.90;;;7.35;;
22660;SDS011;11497;52.222;21.246;2023-12-20T09:49:31;10.93;;;8.02;;
22660;SDS011;11497;52.222;21.246;2023-12-20T09:52:00;10.50;;;7.75;;
22660;SDS011;11497;52.222;21.246;2023-12-20T09:54:30;11.20;;;7.43;;
22660;SDS011;11497;52.222;21.246;2023-12-20T09:56:58;10.80;;;7.50;;
22660;SDS011;11497;52.222;21.246;2023-12-20T09:59:26;9.68;;;7.13;;
22660;SDS011;11497;52.222;21.246;2023-12-20T10:01:54;9.90;;;7.45;;
22660;SDS011;11497;52.222;21.246;2023-12-20T10:04:24;11.52;;;7.88;;
22660;SDS011;11497;52.222;21.246;2023-12-20T10:06:56;11.50;;;7.80;;
22660;SDS011;11497;52.222;21.246;2023-12-20T10:09:31;10.05;;;7.95;;
22660;SDS011;11497;52.222;21.246;2023-12-20T10:11:59;9.95;;;7.25;;
22660;SDS011;11497;52.222;21.246;2023-12-20T10:14:27;10.27;;;7.50;;
22660;SDS011;11497;52.222;21.246;2023-12-20T10:17:01;10.93;;;7.80;;
22660;SDS011;11497;52.222;21.246;2023-12-20T10:19:30;11.45;;;7.25;;
22660;SDS011;11497;52.222;21.246;2023-12-20T10:21:59;10.30;;;7.97;;
22660;SDS011;11497;52.222;21.246;2023-12-20T10:24:30;12.38;;;7.95;;
22660;SDS011;11497;52.222;21.246;2023-12-20T10:27:05;11.85;;;8.13;;
22660;SDS011;11497;52.222;21.246;2023-12-20T10:29:35;10.52;;;7.45;;
22660;SDS011;11497;52.222;21.246;2023-12-20T10:32:23;12.10;;;7.30;;
22660;SDS011;11497;52.222;21.246;2023-12-20T10:34:53;13.05;;;7.35;;
22660;SDS011;11497;52.222;21.246;2023-12-20T10:37:21;10.27;;;7.03;;
22660;SDS011;11497;52.222;21.246;2023-12-20T10:39:50;9.48;;;7.20;;
22660;SDS011;11497;52.222;21.246;2023-12-20T10:42:26;11.77;;;7.88;;
22660;SDS011;11497;52.222;21.246;2023-12-20T10:44:58;10.35;;;7.03;;
22660;SDS011;11497;52.222;21.246;2023-12-20T10:47:26;13.57;;;7.47;;
22660;SDS011;11497;52.222;21.246;2023-12-20T10:49:57;11.38;;;7.60;;
22660;SDS011;11497;52.222;21.246;2023-12-20T10:52:28;15.35;;;7.80;;
22660;SDS011;11497;52.222;21.246;2023-12-20T10:54:59;10.43;;;7.47;;
22660;SDS011;11497;52.222;21.246;2023-12-20T10:57:27;10.48;;;7.78;;
22660;SDS011;11497;52.222;21.246;2023-12-20T10:59:56;13.13;;;6.82;;
22660;SDS011;11497;52.222;21.246;2023-12-20T11:05:06;11.50;;;7.20;;
22660;SDS011;11497;52.222;21.246;2023-12-20T11:10:58;10.60;;;7.30;;
22660;SDS011;11497;52.222;21.246;2023-12-20T11:16:25;10.60;;;7.43;;
22660;SDS011;11497;52.222;21.246;2023-12-20T11:19:06;12.40;;;7.90;;
22660;SDS011;11497;52.222;21.246;2023-12-20T11:21:35;11.07;;;7.40;;
22660;SDS011;11497;52.222;21.246;2023-12-20T11:24:02;10.95;;;7.40;;
22660;SDS011;11497;52.222;21.246;2023-12-20T11:26:32;11.13;;;7.60;;
22660;SDS011;11497;52.222;21.246;2023-12-20T11:29:42;9.32;;;6.78;;
22660;SDS011;11497;52.222;21.246;2023-12-20T11:31:56;10.40;;;7.47;;
22660;SDS011;11497;52.222;21.246;2023-12-20T11:34:29;10.55;;;7.18;;
22660;SDS011;11497;52.222;21.246;2023-12-20T11:37:01;10.07;;;6.78;;
22660;SDS011;11497;52.222;21.246;2023-12-20T11:39:30;10.02;;;7.35;;
22660;SDS011;11497;52.222;21.246;2023-12-20T11:42:04;8.18;;;6.82;;
22660;SDS011;11497;52.222;21.246;2023-12-20T11:44:33;10.05;;;7.32;;
22660;SDS011;11497;52.222;21.246;2023-12-20T11:47:05;10.77;;;7.57;;
22660;SDS011;11497;52.222;21.246;2023-12-20T11:49:34;10.55;;;7.22;;
22660;SDS011;11497;52.222;21.246;2023-12-20T11:52:03;11.52;;;7.47;;
22660;SDS011;11497;52.222;21.246;2023-12-20T11:54:31;13.90;;;7.55;;
22660;SDS011;11497;52.222;21.246;2023-12-20T11:57:00;10.63;;;7.05;;
22660;SDS011;11497;52.222;21.246;2023-12-20T11:59:28;14.23;;;7.65;;
22660;SDS011;11497;52.222;21.246;2023-12-20T12:01:55;11.80;;;7.50;;
22660;SDS011;11497;52.222;21.246;2023-12-20T12:04:28;10.45;;;6.78;;
22660;SDS011;11497;52.222;21.246;2023-12-20T12:06:56;9.38;;;6.88;;
22660;SDS011;11497;52.222;21.246;2023-12-20T12:09:24;10.48;;;7.10;;
22660;SDS011;11497;52.222;21.246;2023-12-20T12:11:52;7.90;;;6.55;;
22660;SDS011;11497;52.222;21.246;2023-12-20T12:14:20;11.15;;;7.32;;
22660;SDS011;11497;52.222;21.246;2023-12-20T12:16:48;10.00;;;7.35;;
22660;SDS011;11497;52.222;21.246;2023-12-20T12:19:20;11.90;;;6.78;;
22660;SDS011;11497;52.222;21.246;2023-12-20T12:24:45;10.38;;;7.40;;
22660;SDS011;11497;52.222;21.246;2023-12-20T12:27:13;14.30;;;7.15;;
22660;SDS011;11497;52.222;21.246;2023-12-20T12:29:59;10.43;;;7.35;;
22660;SDS011;11497;52.222;21.246;2023-12-20T12:32:29;9.95;;;7.43;;
22660;SDS011;11497;52.222;21.246;2023-12-20T12:34:59;11.40;;;7.65;;
22660;SDS011;11497;52.222;21.246;2023-12-20T12:37:27;11.30;;;7.82;;
22660;SDS011;11497;52.222;21.246;2023-12-20T12:39:56;11.73;;;8.30;;
22660;SDS011;11497;52.222;21.246;2023-12-20T12:42:25;11.07;;;8.45;;
22660;SDS011;11497;52.222;21.246;2023-12-20T12:44:55;14.43;;;9.50;;
22660;SDS011;11497;52.222;21.246;2023-12-20T12:47:23;14.05;;;8.85;;
22660;SDS011;11497;52.222;21.246;2023-12-20T12:49:53;12.82;;;9.18;;
22660;SDS011;11497;52.222;21.246;2023-12-20T12:52:21;14.75;;;9.20;;
22660;SDS011;11497;52.222;21.246;2023-12-20T12:54:49;13.52;;;9.30;;
22660;SDS011;11497;52.222;21.246;2023-12-20T12:57:17;15.63;;;8.70;;
22660;SDS011;11497;52.222;21.246;2023-12-20T12:59:46;13.10;;;8.77;;
22660;SDS011;11497;52.222;21.246;2023-12-20T13:02:14;12.88;;;8.52;;
22660;SDS011;11497;52.222;21.246;2023-12-20T13:04:42;11.93;;;8.77;;
22660;SDS011;11497;52.222;21.246;2023-12-20T13:07:10;11.30;;;8.52;;
22660;SDS011;11497;52.222;21.246;2023-12-20T13:09:39;14.82;;;9.25;;
22660;SDS011;11497;52.222;21.246;2023-12-20T13:12:07;12.07;;;9.32;;
22660;SDS011;11497;52.222;21.246;2023-12-20T13:14:36;15.15;;;9.90;;
22660;SDS011;11497;52.222;21.246;2023-12-20T13:17:04;12.57;;;8.80;;
22660;SDS011;11497;52.222;21.246;2023-12-20T13:19:32;13.38;;;9.18;;
22660;SDS011;11497;52.222;21.246;2023-12-20T13:22:01;13.15;;;9.32;;
22660;SDS011;11497;52.222;21.246;2023-12-20T13:24:29;13.27;;;9.38;;
22660;SDS011;11497;52.222;21.246;2023-12-20T13:26:57;14.95;;;10.35;;
22660;SDS011;11497;52.222;21.246;2023-12-20T13:29:25;12.48;;;9.82;;
22660;SDS011;11497;52.222;21.246;2023-12-20T13:31:54;13.93;;;9.77;;
22660;SDS011;11497;52.222;21.246;2023-12-20T13:34:22;15.90;;;10.68;;
22660;SDS011;11497;52.222;21.246;2023-12-20T13:36:50;16.90;;;10.27;;
22660;SDS011;11497;52.222;21.246;2023-12-20T13:39:18;18.48;;;11.95;;
22660;SDS011;11497;52.222;21.246;2023-12-20T13:41:46;15.90;;;10.95;;
22660;SDS011;11497;52.222;21.246;2023-12-20T13:44:15;19.73;;;11.73;;
22660;SDS011;11497;52.222;21.246;2023-12-20T13:46:43;19.98;;;11.48;;
22660;SDS011;11497;52.222;21.246;2023-12-20T13:49:12;20.67;;;12.43;;
22660;SDS011;11497;52.222;21.246;2023-12-20T13:51:40;18.23;;;11.40;;
22660;SDS011;11497;52.222;21.246;2023-12-20T13:54:08;17.48;;;10.95;;
22660;SDS011;11497;52.222;21.246;2023-12-20T13:56:37;16.67;;;11.23;;
22660;SDS011;11497;52.222;21.246;2023-12-20T14:01:49;19.17;;;10.07;;
22660;SDS011;11497;52.222;21.246;2023-12-20T14:04:17;16.50;;;10.73;;
22660;SDS011;11497;52.222;21.246;2023-12-20T14:07:05;17.27;;;10.88;;
22660;SDS011;11497;52.222;21.246;2023-12-20T14:09:34;20.70;;;12.18;;
22660;SDS011;11497;52.222;21.246;2023-12-20T14:12:02;21.17;;;12.38;;
22660;SDS011;11497;52.222;21.246;2023-12-20T14:14:30;20.33;;;12.07;;
22660;SDS011;11497;52.222;21.246;2023-12-20T14:16:58;16.42;;;10.98;;
22660;SDS011;11497;52.222;21.246;2023-12-20T14:19:27;20.63;;;11.07;;
22660;SDS011;11497;52.222;21.246;2023-12-20T14:21:56;23.80;;;12.38;;
22660;SDS011;11497;52.222;21.246;2023-12-20T14:24:28;26.98;;;13.00;;
22660;SDS011;11497;52.222;21.246;2023-12-20T14:26:56;46.55;;;20.08;;
22660;SDS011;11497;52.222;21.246;2023-12-20T14:29:25;19.30;;;11.85;;
22660;SDS011;11497;52.222;21.246;2023-12-20T14:31:54;17.45;;;9.82;;
22660;SDS011;11497;52.222;21.246;2023-12-20T14:34:21;16.38;;;10.65;;
22660;SDS011;11497;52.222;21.246;2023-12-20T14:36:51;19.67;;;11.07;;
22660;SDS011;11497;52.222;21.246;2023-12-20T14:39:19;18.63;;;10.88;;